sensor_id;sensor_type;location;lat;lon;timestamp;P1;durP1;ratioP1;P2;durP2;ratioP2
56860;SDS011;42744;51.094;3.490;2023-06-22T00:01:42;7.00;;;5.33;;
56860;SDS011;42744;51.094;3.490;2023-06-22T00:04:08;6.97;;;5.40;;
56860;SDS011;42744;51.094;3.490;2023-06-22T00:06:34;12.20;;;5.10;;
56860;SDS011;42744;51.094;3.490;2023-06-22T00:09:00;7.00;;;5.17;;
56860;SDS011;42744;51.094;3.490;2023-06-22T00:11:27;8.37;;;5.20;;
56860;SDS011;42744;51.094;3.490;2023-06-22T00:13:53;9.30;;;5.77;;
56860;SDS011;42744;51.094;3.490;2023-06-22T00:16:19;7.03;;;5.53;;
56860;SDS011;42744;51.094;3.490;2023-06-22T00:18:45;6.67;;;5.00;;
56860;SDS011;42744;51.094;3.490;2023-06-22T00:21:12;7.47;;;5.40;;
56860;SDS011;42744;51.094;3.490;2023-06-22T00:23:38;9.77;;;5.77;;
56860;SDS011;42744;51.094;3.490;2023-06-22T00:26:04;8.43;;;5.13;;
56860;SDS011;42744;51.094;3.490;2023-06-22T00:28:30;6.97;;;5.63;;
56860;SDS011;42744;51.094;3.490;2023-06-22T00:30:56;7.07;;;5.73;;
56860;SDS011;42744;51.094;3.490;2023-06-22T00:33:24;8.43;;;6.07;;
56860;SDS011;42744;51.094;3.490;2023-06-22T00:35:50;6.83;;;5.53;;
56860;SDS011;42744;51.094;3.490;2023-06-22T00:38:18;7.83;;;6.03;;
56860;SDS011;42744;51.094;3.490;2023-06-22T00:40:44;10.23;;;5.77;;
56860;SDS011;42744;51.094;3.490;2023-06-22T00:43:10;7.17;;;5.27;;
56860;SDS011;42744;51.094;3.490;2023-06-22T00:45:36;7.43;;;5.77;;
56860;SDS011;42744;51.094;3.490;2023-06-22T00:48:02;9.50;;;6.50;;
56860;SDS011;42744;51.094;3.490;2023-06-22T00:50:29;7.00;;;5.73;;
56860;SDS011;42744;51.094;3.490;2023-06-22T00:53:01;7.87;;;5.53;;
56860;SDS011;42744;51.094;3.490;2023-06-22T00:55:41;7.53;;;5.33;;
56860;SDS011;42744;51.094;3.490;2023-06-22T00:58:12;6.93;;;5.50;;
56860;SDS011;42744;51.094;3.490;2023-06-22T01:00:40;7.67;;;5.57;;
56860;SDS011;42744;51.094;3.490;2023-06-22T01:03:06;7.37;;;5.47;;
56860;SDS011;42744;51.094;3.490;2023-06-22T01:05:34;8.10;;;5.87;;
56860;SDS011;42744;51.094;3.490;2023-06-22T01:13:40;8.70;;;6.10;;
56860;SDS011;42744;51.094;3.490;2023-06-22T01:16:27;8.07;;;5.87;;
56860;SDS011;42744;51.094;3.490;2023-06-22T01:18:55;9.03;;;5.70;;
56860;SDS011;42744;51.094;3.490;2023-06-22T01:21:28;10.10;;;6.23;;
56860;SDS011;42744;51.094;3.490;2023-06-22T01:29:16;7.97;;;5.80;;
56860;SDS011;42744;51.094;3.490;2023-06-22T01:31:42;7.87;;;6.23;;
56860;SDS011;42744;51.094;3.490;2023-06-22T01:34:11;8.67;;;6.30;;
56860;SDS011;42744;51.094;3.490;2023-06-22T01:36:39;10.33;;;6.87;;
56860;SDS011;42744;51.094;3.490;2023-06-22T01:39:05;6.97;;;5.70;;
56860;SDS011;42744;51.094;3.490;2023-06-22T01:41:34;9.13;;;6.10;;
56860;SDS011;42744;51.094;3.490;2023-06-22T01:44:03;7.30;;;6.30;;
56860;SDS011;42744;51.094;3.490;2023-06-22T01:46:33;8.23;;;5.90;;
56860;SDS011;42744;51.094;3.490;2023-06-22T01:49:01;8.67;;;6.47;;
56860;SDS011;42744;51.094;3.490;2023-06-22T01:51:28;9.07;;;6.10;;
56860;SDS011;42744;51.094;3.490;2023-06-22T01:53:54;9.60;;;6.67;;
56860;SDS011;42744;51.094;3.490;2023-06-22T01:56:20;10.27;;;6.90;;
56860;SDS011;42744;51.094;3.490;2023-06-22T01:58:51;8.73;;;6.50;;
56860;SDS011;42744;51.094;3.490;2023-06-22T02:01:41;9.13;;;6.73;;
56860;SDS011;42744;51.094;3.490;2023-06-22T02:04:19;12.13;;;5.87;;
56860;SDS011;42744;51.094;3.490;2023-06-22T02:06:50;8.73;;;6.40;;
56860;SDS011;42744;51.094;3.490;2023-06-22T02:09:28;8.87;;;6.77;;
56860;SDS011;42744;51.094;3.490;2023-06-22T02:12:06;11.00;;;6.90;;
56860;SDS011;42744;51.094;3.490;2023-06-22T02:14:35;9.80;;;6.70;;
56860;SDS011;42744;51.094;3.490;2023-06-22T02:17:02;10.03;;;7.00;;
56860;SDS011;42744;51.094;3.490;2023-06-22T02:19:30;9.50;;;6.27;;
56860;SDS011;42744;51.094;3.490;2023-06-22T02:21:58;8.23;;;6.50;;
56860;SDS011;42744;51.094;3.490;2023-06-22T02:24:24;13.13;;;7.03;;
56860;SDS011;42744;51.094;3.490;2023-06-22T02:26:50;10.67;;;6.97;;
56860;SDS011;42744;51.094;3.490;2023-06-22T02:29:16;10.73;;;6.97;;
56860;SDS011;42744;51.094;3.490;2023-06-22T02:31:42;8.87;;;6.40;;
56860;SDS011;42744;51.094;3.490;2023-06-22T02:34:08;12.97;;;7.77;;
56860;SDS011;42744;51.094;3.490;2023-06-22T02:36:34;12.37;;;6.80;;
56860;SDS011;42744;51.094;3.490;2023-06-22T02:39:00;9.87;;;7.40;;
56860;SDS011;42744;51.094;3.490;2023-06-22T02:41:29;10.13;;;7.30;;
56860;SDS011;42744;51.094;3.490;2023-06-22T02:43:55;10.53;;;7.60;;
56860;SDS011;42744;51.094;3.490;2023-06-22T02:46:21;11.20;;;7.47;;
56860;SDS011;42744;51.094;3.490;2023-06-22T02:48:48;10.47;;;7.43;;
56860;SDS011;42744;51.094;3.490;2023-06-22T02:51:14;12.03;;;7.50;;
56860;SDS011;42744;51.094;3.490;2023-06-22T02:53:40;9.73;;;7.20;;
56860;SDS011;42744;51.094;3.490;2023-06-22T02:56:11;11.70;;;7.87;;
56860;SDS011;42744;51.094;3.490;2023-06-22T02:58:38;10.70;;;7.87;;
56860;SDS011;42744;51.094;3.490;2023-06-22T03:01:05;11.20;;;7.50;;
56860;SDS011;42744;51.094;3.490;2023-06-22T03:03:32;10.47;;;7.47;;
56860;SDS011;42744;51.094;3.490;2023-06-22T03:05:58;10.17;;;7.40;;
56860;SDS011;42744;51.094;3.490;2023-06-22T03:08:26;10.60;;;7.13;;
56860;SDS011;42744;51.094;3.490;2023-06-22T03:10:53;11.60;;;7.37;;
56860;SDS011;42744;51.094;3.490;2023-06-22T03:13:19;9.67;;;6.93;;
56860;SDS011;42744;51.094;3.490;2023-06-22T03:15:45;11.07;;;7.07;;
56860;SDS011;42744;51.094;3.490;2023-06-22T03:18:11;11.13;;;6.90;;
56860;SDS011;42744;51.094;3.490;2023-06-22T03:20:37;10.07;;;7.07;;
56860;SDS011;42744;51.094;3.490;2023-06-22T03:23:03;16.93;;;7.50;;
56860;SDS011;42744;51.094;3.490;2023-06-22T03:25:31;12.77;;;7.60;;
56860;SDS011;42744;51.094;3.490;2023-06-22T03:27:59;11.27;;;7.40;;
56860;SDS011;42744;51.094;3.490;2023-06-22T03:30:26;10.80;;;7.30;;
56860;SDS011;42744;51.094;3.490;2023-06-22T03:32:52;9.43;;;7.43;;
56860;SDS011;42744;51.094;3.490;2023-06-22T03:35:18;8.77;;;6.87;;
56860;SDS011;42744;51.094;3.490;2023-06-22T03:37:45;10.73;;;7.17;;
56860;SDS011;42744;51.094;3.490;2023-06-22T03:40:11;9.17;;;7.30;;
56860;SDS011;42744;51.094;3.490;2023-06-22T03:42:38;8.90;;;6.97;;
56860;SDS011;42744;51.094;3.490;2023-06-22T03:45:04;13.43;;;7.43;;
56860;SDS011;42744;51.094;3.490;2023-06-22T03:47:31;9.57;;;7.80;;
56860;SDS011;42744;51.094;3.490;2023-06-22T03:49:58;10.60;;;7.93;;
56860;SDS011;42744;51.094;3.490;2023-06-22T03:52:24;12.53;;;7.70;;
56860;SDS011;42744;51.094;3.490;2023-06-22T03:54:50;12.10;;;7.43;;
56860;SDS011;42744;51.094;3.490;2023-06-22T03:57:16;8.90;;;7.07;;
56860;SDS011;42744;51.094;3.490;2023-06-22T03:59:42;12.23;;;7.23;;
56860;SDS011;42744;51.094;3.490;2023-06-22T04:02:08;9.33;;;7.43;;
56860;SDS011;42744;51.094;3.490;2023-06-22T04:04:34;8.60;;;7.03;;
56860;SDS011;42744;51.094;3.490;2023-06-22T04:07:01;13.60;;;8.10;;
56860;SDS011;42744;51.094;3.490;2023-06-22T04:09:26;9.70;;;7.87;;
56860;SDS011;42744;51.094;3.490;2023-06-22T04:11:53;9.97;;;7.77;;
56860;SDS011;42744;51.094;3.490;2023-06-22T04:14:18;11.27;;;7.07;;
56860;SDS011;42744;51.094;3.490;2023-06-22T04:16:44;10.80;;;7.63;;
56860;SDS011;42744;51.094;3.490;2023-06-22T04:19:11;10.30;;;7.97;;
56860;SDS011;42744;51.094;3.490;2023-06-22T04:21:42;14.83;;;8.20;;
56860;SDS011;42744;51.094;3.490;2023-06-22T04:24:09;10.50;;;7.67;;
56860;SDS011;42744;51.094;3.490;2023-06-22T04:26:40;10.73;;;8.27;;
56860;SDS011;42744;51.094;3.490;2023-06-22T04:29:10;13.17;;;8.40;;
56860;SDS011;42744;51.094;3.490;2023-06-22T04:31:37;9.60;;;7.37;;
56860;SDS011;42744;51.094;3.490;2023-06-22T04:34:04;11.90;;;8.67;;
56860;SDS011;42744;51.094;3.490;2023-06-22T04:36:33;9.80;;;7.97;;
56860;SDS011;42744;51.094;3.490;2023-06-22T04:39:04;9.73;;;8.40;;
56860;SDS011;42744;51.094;3.490;2023-06-22T04:41:31;11.20;;;8.23;;
56860;SDS011;42744;51.094;3.490;2023-06-22T04:46:37;11.07;;;8.40;;
56860;SDS011;42744;51.094;3.490;2023-06-22T04:49:04;14.77;;;8.40;;
56860;SDS011;42744;51.094;3.490;2023-06-22T04:51:37;12.90;;;8.33;;
56860;SDS011;42744;51.094;3.490;2023-06-22T04:54:04;13.40;;;9.00;;
56860;SDS011;42744;51.094;3.490;2023-06-22T04:56:31;10.40;;;8.43;;
56860;SDS011;42744;51.094;3.490;2023-06-22T04:59:07;10.63;;;8.37;;
56860;SDS011;42744;51.094;3.490;2023-06-22T05:01:33;12.40;;;9.17;;
56860;SDS011;42744;51.094;3.490;2023-06-22T05:04:00;13.83;;;9.27;;
56860;SDS011;42744;51.094;3.490;2023-06-22T05:06:28;11.37;;;9.30;;
56860;SDS011;42744;51.094;3.490;2023-06-22T05:08:54;12.43;;;9.50;;
56860;SDS011;42744;51.094;3.490;2023-06-22T05:11:28;12.13;;;8.80;;
56860;SDS011;42744;51.094;3.490;2023-06-22T05:13:54;12.53;;;9.50;;
56860;SDS011;42744;51.094;3.490;2023-06-22T05:16:20;12.47;;;9.30;;
56860;SDS011;42744;51.094;3.490;2023-06-22T05:18:49;12.73;;;8.63;;
56860;SDS011;42744;51.094;3.490;2023-06-22T05:21:22;11.73;;;9.60;;
56860;SDS011;42744;51.094;3.490;2023-06-22T05:23:50;13.70;;;9.77;;
56860;SDS011;42744;51.094;3.490;2023-06-22T05:26:16;14.80;;;9.43;;
56860;SDS011;42744;51.094;3.490;2023-06-22T05:28:43;13.40;;;9.67;;
56860;SDS011;42744;51.094;3.490;2023-06-22T05:31:13;15.70;;;10.77;;
56860;SDS011;42744;51.094;3.490;2023-06-22T05:33:40;13.60;;;10.97;;
56860;SDS011;42744;51.094;3.490;2023-06-22T05:36:07;14.97;;;10.07;;
56860;SDS011;42744;51.094;3.490;2023-06-22T05:38:34;17.27;;;10.10;;
56860;SDS011;42744;51.094;3.490;2023-06-22T05:41:00;15.30;;;10.83;;
56860;SDS011;42744;51.094;3.490;2023-06-22T05:43:27;13.73;;;10.10;;
56860;SDS011;42744;51.094;3.490;2023-06-22T05:45:53;12.80;;;10.73;;
56860;SDS011;42744;51.094;3.490;2023-06-22T05:48:19;14.17;;;11.00;;
56860;SDS011;42744;51.094;3.490;2023-06-22T05:50:45;16.43;;;12.53;;
56860;SDS011;42744;51.094;3.490;2023-06-22T05:53:11;17.90;;;12.57;;
56860;SDS011;42744;51.094;3.490;2023-06-22T05:55:37;17.27;;;13.10;;
56860;SDS011;42744;51.094;3.490;2023-06-22T05:58:03;17.73;;;12.67;;
56860;SDS011;42744;51.094;3.490;2023-06-22T06:00:29;17.60;;;12.90;;
56860;SDS011;42744;51.094;3.490;2023-06-22T06:02:56;21.60;;;14.47;;
56860;SDS011;42744;51.094;3.490;2023-06-22T06:05:22;19.40;;;13.50;;
56860;SDS011;42744;51.094;3.490;2023-06-22T06:07:49;21.37;;;13.20;;
56860;SDS011;42744;51.094;3.490;2023-06-22T06:10:15;19.93;;;14.27;;
56860;SDS011;42744;51.094;3.490;2023-06-22T06:12:41;21.07;;;13.87;;
56860;SDS011;42744;51.094;3.490;2023-06-22T06:15:07;19.63;;;14.73;;
56860;SDS011;42744;51.094;3.490;2023-06-22T06:17:33;23.63;;;13.93;;
56860;SDS011;42744;51.094;3.490;2023-06-22T06:19:59;22.37;;;14.17;;
56860;SDS011;42744;51.094;3.490;2023-06-22T06:22:26;19.40;;;14.10;;
56860;SDS011;42744;51.094;3.490;2023-06-22T06:24:52;19.00;;;13.93;;
56860;SDS011;42744;51.094;3.490;2023-06-22T06:27:18;21.87;;;14.93;;
56860;SDS011;42744;51.094;3.490;2023-06-22T06:29:44;23.77;;;15.57;;
56860;SDS011;42744;51.094;3.490;2023-06-22T06:32:13;19.30;;;14.50;;
56860;SDS011;42744;51.094;3.490;2023-06-22T06:34:39;21.97;;;14.97;;
56860;SDS011;42744;51.094;3.490;2023-06-22T06:37:05;20.40;;;14.70;;
56860;SDS011;42744;51.094;3.490;2023-06-22T06:39:32;22.43;;;17.17;;
56860;SDS011;42744;51.094;3.490;2023-06-22T06:41:57;24.47;;;15.80;;
56860;SDS011;42744;51.094;3.490;2023-06-22T06:44:23;18.83;;;15.07;;
56860;SDS011;42744;51.094;3.490;2023-06-22T06:46:49;24.90;;;16.43;;
56860;SDS011;42744;51.094;3.490;2023-06-22T06:49:15;24.30;;;16.03;;
56860;SDS011;42744;51.094;3.490;2023-06-22T06:51:41;25.90;;;16.80;;
56860;SDS011;42744;51.094;3.490;2023-06-22T06:54:07;21.70;;;16.83;;
56860;SDS011;42744;51.094;3.490;2023-06-22T06:56:33;26.87;;;16.83;;
56860;SDS011;42744;51.094;3.490;2023-06-22T06:58:59;23.83;;;16.50;;
56860;SDS011;42744;51.094;3.490;2023-06-22T07:01:25;25.10;;;17.00;;
56860;SDS011;42744;51.094;3.490;2023-06-22T07:03:51;25.90;;;18.40;;
56860;SDS011;42744;51.094;3.490;2023-06-22T07:06:17;24.30;;;17.50;;
56860;SDS011;42744;51.094;3.490;2023-06-22T07:08:43;26.93;;;18.73;;
56860;SDS011;42744;51.094;3.490;2023-06-22T07:11:09;26.37;;;18.60;;
56860;SDS011;42744;51.094;3.490;2023-06-22T07:13:35;27.60;;;18.50;;
56860;SDS011;42744;51.094;3.490;2023-06-22T07:16:01;25.10;;;18.33;;
56860;SDS011;42744;51.094;3.490;2023-06-22T07:18:27;23.57;;;18.63;;
56860;SDS011;42744;51.094;3.490;2023-06-22T07:20:53;26.00;;;18.73;;
56860;SDS011;42744;51.094;3.490;2023-06-22T07:23:19;23.77;;;18.37;;
56860;SDS011;42744;51.094;3.490;2023-06-22T07:25:45;24.87;;;19.33;;
56860;SDS011;42744;51.094;3.490;2023-06-22T07:28:11;25.77;;;18.93;;
56860;SDS011;42744;51.094;3.490;2023-06-22T07:30:37;28.87;;;19.95;;
56860;SDS011;42744;51.094;3.490;2023-06-22T07:33:03;26.50;;;19.05;;
56860;SDS011;42744;51.094;3.490;2023-06-22T07:35:32;25.33;;;19.33;;
56860;SDS011;42744;51.094;3.490;2023-06-22T07:37:59;25.45;;;19.10;;
56860;SDS011;42744;51.094;3.490;2023-06-22T07:40:25;22.90;;;18.33;;
56860;SDS011;42744;51.094;3.490;2023-06-22T07:42:51;25.08;;;17.83;;
56860;SDS011;42744;51.094;3.490;2023-06-22T07:45:18;24.40;;;18.80;;
56860;SDS011;42744;51.094;3.490;2023-06-22T07:47:44;29.55;;;21.10;;
56860;SDS011;42744;51.094;3.490;2023-06-22T07:50:10;33.10;;;20.15;;
56860;SDS011;42744;51.094;3.490;2023-06-22T07:52:37;26.23;;;19.60;;
56860;SDS011;42744;51.094;3.490;2023-06-22T07:55:03;25.65;;;18.05;;
56860;SDS011;42744;51.094;3.490;2023-06-22T07:57:29;24.50;;;19.37;;
56860;SDS011;42744;51.094;3.490;2023-06-22T08:00:00;26.20;;;20.05;;
56860;SDS011;42744;51.094;3.490;2023-06-22T08:02:26;25.05;;;19.98;;
56860;SDS011;42744;51.094;3.490;2023-06-22T08:04:52;19.75;;;17.65;;
56860;SDS011;42744;51.094;3.490;2023-06-22T08:07:18;29.00;;;19.60;;
56860;SDS011;42744;51.094;3.490;2023-06-22T08:09:48;23.45;;;18.90;;
56860;SDS011;42744;51.094;3.490;2023-06-22T08:12:15;24.70;;;19.10;;
56860;SDS011;42744;51.094;3.490;2023-06-22T08:14:41;23.87;;;18.33;;
56860;SDS011;42744;51.094;3.490;2023-06-22T08:17:09;22.98;;;19.00;;
56860;SDS011;42744;51.094;3.490;2023-06-22T08:19:36;23.80;;;18.20;;
56860;SDS011;42744;51.094;3.490;2023-06-22T08:22:02;25.30;;;19.00;;
56860;SDS011;42744;51.094;3.490;2023-06-22T08:24:28;21.25;;;18.73;;
56860;SDS011;42744;51.094;3.490;2023-06-22T08:26:56;23.40;;;18.42;;
56860;SDS011;42744;51.094;3.490;2023-06-22T08:29:22;20.25;;;17.75;;
56860;SDS011;42744;51.094;3.490;2023-06-22T08:31:47;21.90;;;16.70;;
56860;SDS011;42744;51.094;3.490;2023-06-22T08:34:14;18.10;;;16.25;;
56860;SDS011;42744;51.094;3.490;2023-06-22T08:36:40;20.98;;;16.50;;
56860;SDS011;42744;51.094;3.490;2023-06-22T08:39:08;21.62;;;15.63;;
56860;SDS011;42744;51.094;3.490;2023-06-22T08:41:34;23.17;;;16.60;;
56860;SDS011;42744;51.094;3.490;2023-06-22T08:44:00;19.60;;;15.45;;
56860;SDS011;42744;51.094;3.490;2023-06-22T08:46:26;19.77;;;17.08;;
56860;SDS011;42744;51.094;3.490;2023-06-22T08:48:57;23.75;;;17.77;;
56860;SDS011;42744;51.094;3.490;2023-06-22T08:51:24;22.23;;;17.42;;
56860;SDS011;42744;51.094;3.490;2023-06-22T08:53:50;23.10;;;17.95;;
56860;SDS011;42744;51.094;3.490;2023-06-22T08:56:16;21.35;;;17.27;;
56860;SDS011;42744;51.094;3.490;2023-06-22T08:58:42;22.35;;;16.02;;
56860;SDS011;42744;51.094;3.490;2023-06-22T09:01:08;17.92;;;15.55;;
56860;SDS011;42744;51.094;3.490;2023-06-22T09:03:34;17.55;;;15.63;;
56860;SDS011;42744;51.094;3.490;2023-06-22T09:06:02;17.80;;;15.48;;
56860;SDS011;42744;51.094;3.490;2023-06-22T09:08:28;19.70;;;15.10;;
56860;SDS011;42744;51.094;3.490;2023-06-22T09:10:54;17.42;;;14.30;;
56860;SDS011;42744;51.094;3.490;2023-06-22T09:13:20;18.98;;;14.45;;
56860;SDS011;42744;51.094;3.490;2023-06-22T09:15:47;17.98;;;14.63;;
56860;SDS011;42744;51.094;3.490;2023-06-22T09:18:13;19.12;;;14.82;;
56860;SDS011;42744;51.094;3.490;2023-06-22T09:20:39;14.85;;;13.32;;
56860;SDS011;42744;51.094;3.490;2023-06-22T09:23:05;14.82;;;12.70;;
56860;SDS011;42744;51.094;3.490;2023-06-22T09:25:32;16.65;;;12.63;;
56860;SDS011;42744;51.094;3.490;2023-06-22T09:27:58;16.65;;;14.02;;
56860;SDS011;42744;51.094;3.490;2023-06-22T09:30:23;17.33;;;13.55;;
56860;SDS011;42744;51.094;3.490;2023-06-22T09:32:50;18.33;;;13.68;;
56860;SDS011;42744;51.094;3.490;2023-06-22T09:35:16;16.60;;;14.02;;
56860;SDS011;42744;51.094;3.490;2023-06-22T09:37:42;17.35;;;14.63;;
56860;SDS011;42744;51.094;3.490;2023-06-22T09:40:08;20.70;;;15.00;;
56860;SDS011;42744;51.094;3.490;2023-06-22T09:42:37;16.98;;;13.68;;
56860;SDS011;42744;51.094;3.490;2023-06-22T09:45:04;17.87;;;13.43;;
56860;SDS011;42744;51.094;3.490;2023-06-22T09:47:31;15.65;;;14.02;;
56860;SDS011;42744;51.094;3.490;2023-06-22T09:49:57;18.55;;;13.93;;
56860;SDS011;42744;51.094;3.490;2023-06-22T09:52:25;17.17;;;14.35;;
56860;SDS011;42744;51.094;3.490;2023-06-22T09:54:51;16.40;;;13.73;;
56860;SDS011;42744;51.094;3.490;2023-06-22T09:57:17;16.60;;;13.45;;
56860;SDS011;42744;51.094;3.490;2023-06-22T09:59:42;20.33;;;13.85;;
56860;SDS011;42744;51.094;3.490;2023-06-22T10:02:09;18.90;;;14.45;;
56860;SDS011;42744;51.094;3.490;2023-06-22T10:04:35;16.30;;;13.57;;
56860;SDS011;42744;51.094;3.490;2023-06-22T10:07:01;17.27;;;14.65;;
56860;SDS011;42744;51.094;3.490;2023-06-22T10:09:27;18.17;;;13.35;;
56860;SDS011;42744;51.094;3.490;2023-06-22T10:11:54;16.33;;;13.27;;
56860;SDS011;42744;51.094;3.490;2023-06-22T10:14:20;16.55;;;14.02;;
56860;SDS011;42744;51.094;3.490;2023-06-22T10:16:46;19.25;;;13.30;;
56860;SDS011;42744;51.094;3.490;2023-06-22T10:19:13;14.98;;;11.95;;
56860;SDS011;42744;51.094;3.490;2023-06-22T10:21:39;13.20;;;11.80;;
56860;SDS011;42744;51.094;3.490;2023-06-22T10:24:05;15.30;;;12.23;;
56860;SDS011;42744;51.094;3.490;2023-06-22T10:26:32;16.75;;;11.25;;
56860;SDS011;42744;51.094;3.490;2023-06-22T10:28:58;16.10;;;11.52;;
56860;SDS011;42744;51.094;3.490;2023-06-22T10:31:25;14.23;;;10.68;;
56860;SDS011;42744;51.094;3.490;2023-06-22T10:33:51;14.52;;;10.90;;
56860;SDS011;42744;51.094;3.490;2023-06-22T10:36:17;14.35;;;10.77;;
56860;SDS011;42744;51.094;3.490;2023-06-22T10:38:43;13.55;;;11.25;;
56860;SDS011;42744;51.094;3.490;2023-06-22T10:41:09;15.38;;;11.60;;
56860;SDS011;42744;51.094;3.490;2023-06-22T10:43:35;13.45;;;10.70;;
56860;SDS011;42744;51.094;3.490;2023-06-22T10:46:00;14.32;;;10.88;;
56860;SDS011;42744;51.094;3.490;2023-06-22T10:48:27;12.80;;;10.60;;
56860;SDS011;42744;51.094;3.490;2023-06-22T10:50:53;13.15;;;11.48;;
56860;SDS011;42744;51.094;3.490;2023-06-22T10:53:19;13.80;;;10.55;;
56860;SDS011;42744;51.094;3.490;2023-06-22T10:55:46;14.68;;;10.45;;
56860;SDS011;42744;51.094;3.490;2023-06-22T10:58:12;20.00;;;11.82;;
56860;SDS011;42744;51.094;3.490;2023-06-22T11:00:37;12.20;;;10.23;;
56860;SDS011;42744;51.094;3.490;2023-06-22T11:03:04;12.52;;;10.27;;
56860;SDS011;42744;51.094;3.490;2023-06-22T11:05:29;12.80;;;10.80;;
56860;SDS011;42744;51.094;3.490;2023-06-22T11:07:55;14.80;;;10.30;;
56860;SDS011;42744;51.094;3.490;2023-06-22T11:10:22;15.05;;;10.23;;
56860;SDS011;42744;51.094;3.490;2023-06-22T11:12:48;13.23;;;11.27;;
56860;SDS011;42744;51.094;3.490;2023-06-22T11:15:13;13.93;;;11.23;;
56860;SDS011;42744;51.094;3.490;2023-06-22T11:17:40;16.45;;;12.75;;
56860;SDS011;42744;51.094;3.490;2023-06-22T11:20:06;15.55;;;11.48;;
56860;SDS011;42744;51.094;3.490;2023-06-22T11:22:37;13.40;;;11.63;;
56860;SDS011;42744;51.094;3.490;2023-06-22T11:25:05;13.43;;;10.80;;
56860;SDS011;42744;51.094;3.490;2023-06-22T11:27:31;13.62;;;11.52;;
56860;SDS011;42744;51.094;3.490;2023-06-22T11:29:57;14.60;;;11.85;;
56860;SDS011;42744;51.094;3.490;2023-06-22T11:32:24;16.73;;;11.70;;
56860;SDS011;42744;51.094;3.490;2023-06-22T11:34:50;16.95;;;11.80;;
56860;SDS011;42744;51.094;3.490;2023-06-22T11:37:16;14.48;;;11.25;;
56860;SDS011;42744;51.094;3.490;2023-06-22T11:39:42;17.05;;;12.55;;
56860;SDS011;42744;51.094;3.490;2023-06-22T11:42:09;15.73;;;11.30;;
56860;SDS011;42744;51.094;3.490;2023-06-22T11:44:35;16.95;;;12.00;;
56860;SDS011;42744;51.094;3.490;2023-06-22T11:47:01;16.00;;;11.63;;
56860;SDS011;42744;51.094;3.490;2023-06-22T11:49:32;13.00;;;10.63;;
56860;SDS011;42744;51.094;3.490;2023-06-22T11:51:58;12.93;;;11.20;;
56860;SDS011;42744;51.094;3.490;2023-06-22T11:54:24;13.68;;;10.85;;
56860;SDS011;42744;51.094;3.490;2023-06-22T11:56:50;15.00;;;10.88;;
56860;SDS011;42744;51.094;3.490;2023-06-22T11:59:16;13.40;;;11.02;;
56860;SDS011;42744;51.094;3.490;2023-06-22T12:01:42;13.82;;;11.23;;
56860;SDS011;42744;51.094;3.490;2023-06-22T12:04:08;16.62;;;12.32;;
56860;SDS011;42744;51.094;3.490;2023-06-22T12:06:37;13.50;;;10.50;;
56860;SDS011;42744;51.094;3.490;2023-06-22T12:09:06;14.77;;;10.88;;
56860;SDS011;42744;51.094;3.490;2023-06-22T12:11:33;15.45;;;10.77;;
56860;SDS011;42744;51.094;3.490;2023-06-22T12:13:58;14.45;;;10.93;;
56860;SDS011;42744;51.094;3.490;2023-06-22T12:16:27;13.68;;;10.35;;
56860;SDS011;42744;51.094;3.490;2023-06-22T12:18:54;15.45;;;10.48;;
56860;SDS011;42744;51.094;3.490;2023-06-22T12:21:20;15.52;;;10.82;;
56860;SDS011;42744;51.094;3.490;2023-06-22T12:23:46;13.25;;;10.25;;
56860;SDS011;42744;51.094;3.490;2023-06-22T12:26:12;15.30;;;11.15;;
56860;SDS011;42744;51.094;3.490;2023-06-22T12:28:38;13.82;;;9.73;;
56860;SDS011;42744;51.094;3.490;2023-06-22T12:31:03;12.50;;;10.55;;
56860;SDS011;42744;51.094;3.490;2023-06-22T12:33:30;14.87;;;9.73;;
56860;SDS011;42744;51.094;3.490;2023-06-22T12:35:56;11.12;;;9.73;;
56860;SDS011;42744;51.094;3.490;2023-06-22T12:38:22;12.45;;;10.13;;
56860;SDS011;42744;51.094;3.490;2023-06-22T12:40:51;13.55;;;9.85;;
56860;SDS011;42744;51.094;3.490;2023-06-22T12:43:17;13.40;;;10.15;;
56860;SDS011;42744;51.094;3.490;2023-06-22T12:45:43;13.45;;;9.88;;
56860;SDS011;42744;51.094;3.490;2023-06-22T12:48:10;15.45;;;10.48;;
56860;SDS011;42744;51.094;3.490;2023-06-22T12:50:35;13.27;;;10.13;;
56860;SDS011;42744;51.094;3.490;2023-06-22T12:53:01;14.98;;;10.73;;
56860;SDS011;42744;51.094;3.490;2023-06-22T12:55:29;14.98;;;10.85;;
56860;SDS011;42744;51.094;3.490;2023-06-22T12:57:55;17.35;;;11.77;;
56860;SDS011;42744;51.094;3.490;2023-06-22T13:00:21;14.07;;;11.55;;
56860;SDS011;42744;51.094;3.490;2023-06-22T13:02:47;14.70;;;11.00;;
56860;SDS011;42744;51.094;3.490;2023-06-22T13:05:13;17.35;;;11.30;;
56860;SDS011;42744;51.094;3.490;2023-06-22T13:07:39;16.83;;;11.73;;
56860;SDS011;42744;51.094;3.490;2023-06-22T13:10:07;14.43;;;10.57;;
56860;SDS011;42744;51.094;3.490;2023-06-22T13:12:34;16.42;;;11.95;;
56860;SDS011;42744;51.094;3.490;2023-06-22T13:14:59;21.83;;;15.45;;
56860;SDS011;42744;51.094;3.490;2023-06-22T13:17:26;24.70;;;15.35;;
56860;SDS011;42744;51.094;3.490;2023-06-22T13:19:52;19.77;;;15.00;;
56860;SDS011;42744;51.094;3.490;2023-06-22T13:22:31;23.55;;;17.10;;
56860;SDS011;42744;51.094;3.490;2023-06-22T13:25:08;26.52;;;19.80;;
56860;SDS011;42744;51.094;3.490;2023-06-22T13:27:38;32.88;;;22.55;;
56860;SDS011;42744;51.094;3.490;2023-06-22T13:30:05;26.27;;;20.42;;
56860;SDS011;42744;51.094;3.490;2023-06-22T13:32:32;28.40;;;22.65;;
56860;SDS011;42744;51.094;3.490;2023-06-22T13:34:58;31.98;;;21.65;;
56860;SDS011;42744;51.094;3.490;2023-06-22T13:37:25;31.27;;;21.60;;
56860;SDS011;42744;51.094;3.490;2023-06-22T13:39:51;29.23;;;21.48;;
56860;SDS011;42744;51.094;3.490;2023-06-22T13:42:17;33.53;;;22.55;;
56860;SDS011;42744;51.094;3.490;2023-06-22T13:44:43;28.92;;;21.80;;
56860;SDS011;42744;51.094;3.490;2023-06-22T13:47:09;28.12;;;21.42;;
56860;SDS011;42744;51.094;3.490;2023-06-22T13:49:35;34.72;;;23.00;;
56860;SDS011;42744;51.094;3.490;2023-06-22T13:52:01;30.80;;;21.98;;
56860;SDS011;42744;51.094;3.490;2023-06-22T13:54:28;28.05;;;21.27;;
56860;SDS011;42744;51.094;3.490;2023-06-22T13:56:54;27.62;;;20.20;;
56860;SDS011;42744;51.094;3.490;2023-06-22T13:59:20;26.40;;;18.92;;
56860;SDS011;42744;51.094;3.490;2023-06-22T14:01:47;26.42;;;18.83;;
56860;SDS011;42744;51.094;3.490;2023-06-22T14:04:13;31.60;;;19.67;;
56860;SDS011;42744;51.094;3.490;2023-06-22T14:06:39;27.15;;;18.33;;
56860;SDS011;42744;51.094;3.490;2023-06-22T14:09:05;26.83;;;19.15;;
56860;SDS011;42744;51.094;3.490;2023-06-22T14:11:31;35.95;;;20.27;;
56860;SDS011;42744;51.094;3.490;2023-06-22T14:13:57;26.23;;;19.67;;
56860;SDS011;42744;51.094;3.490;2023-06-22T14:16:23;24.52;;;18.87;;
56860;SDS011;42744;51.094;3.490;2023-06-22T14:18:49;24.50;;;19.20;;
56860;SDS011;42744;51.094;3.490;2023-06-22T14:21:15;23.48;;;18.45;;
56860;SDS011;42744;51.094;3.490;2023-06-22T14:23:41;28.62;;;20.00;;
56860;SDS011;42744;51.094;3.490;2023-06-22T14:26:07;27.10;;;21.37;;
56860;SDS011;42744;51.094;3.490;2023-06-22T14:28:33;26.60;;;21.65;;
56860;SDS011;42744;51.094;3.490;2023-06-22T14:30:59;30.60;;;23.17;;
56860;SDS011;42744;51.094;3.490;2023-06-22T14:33:25;27.70;;;22.10;;
56860;SDS011;42744;51.094;3.490;2023-06-22T14:35:51;34.05;;;23.70;;
56860;SDS011;42744;51.094;3.490;2023-06-22T14:38:17;37.88;;;27.15;;
56860;SDS011;42744;51.094;3.490;2023-06-22T14:40:43;34.25;;;25.83;;